Time;durP1;ratioP1;P1;durP2;ratioP2;P2;SDS_P1;SDS_P2;PMS_P1;PMS_P2;Temp;Humidity;BMP_temperature;BMP_pressure;BME280_temperature;BME280_humidity;BME280_pressure;Samples;Min_cycle;Max_cycle;Signal;HPM_P1;HPM_P2
2022/02/05 00:01:45;;;;;;;;;4.00;4.00;;;;;14.45;40.30;97676.63;5000134;27;102004;-79
2022/02/05 00:04:14;;;;;;;;;3.00;3.00;;;;;14.46;40.39;97675.53;4995160;27;102138;-79
2022/02/05 00:06:45;;;;;;;;;6.00;4.50;;;;;14.47;40.21;97681.78;4993157;27;103422;-80
2022/02/05 00:20:20;;;;;;;;;4.75;4.00;;;;;14.48;40.56;97669.84;4995814;28;101958;-79
2022/02/05 00:44:41;;;;;;;;;4.50;3.00;;;;;14.41;40.00;97658.31;4972770;28;101851;-79
2022/02/05 00:47:08;;;;;;;;;3.00;3.00;;;;;14.40;40.55;97662.09;5006772;27;101977;-79
2022/02/05 00:49:35;;;;;;;;;4.00;4.00;;;;;14.39;40.14;97655.00;4998408;27;103543;-79
2022/02/05 00:52:09;;;;;;;;;3.00;3.00;;;;;14.37;40.63;97646.25;4992971;27;102202;-79
2022/02/05 00:54:38;;;;;;;;;4.00;3.00;;;;;14.37;40.22;97659.88;4986177;27;102019;-79
2022/02/05 00:59:32;;;;;;;;;3.25;3.25;;;;;14.36;40.01;97666.41;4998729;27;103507;-79
2022/02/05 01:01:59;;;;;;;;;4.50;4.00;;;;;14.36;39.94;97680.00;4984588;27;109180;-79
2022/02/05 01:04:26;;;;;;;;;4.00;3.00;;;;;14.36;40.01;97671.84;4985046;27;102112;-79
2022/02/05 01:06:53;;;;;;;;;4.75;3.50;;;;;14.34;40.43;97658.44;4969189;27;101797;-79
2022/02/05 01:09:24;;;;;;;;;5.00;4.00;;;;;14.32;40.65;97661.41;4983979;27;103267;-79
2022/02/05 01:11:52;;;;;;;;;3.00;3.00;;;;;14.32;40.53;97666.84;4996275;27;102004;-79
2022/02/05 01:14:24;;;;;;;;;3.00;2.00;;;;;14.32;40.70;97661.41;5005749;28;103706;-79
2022/02/05 01:17:03;;;;;;;;;5.00;2.00;;;;;14.34;40.72;97666.59;5003403;27;102015;-79
2022/02/05 01:22:17;;;;;;;;;3.00;3.00;;;;;14.37;40.16;97659.88;5002364;27;101836;-79
2022/02/05 01:24:47;;;;;;;;;2.25;2.00;;;;;14.36;40.58;97652.81;4996401;27;101770;-79
2022/02/05 01:27:33;;;;;;;;;3.75;2.75;;;;;14.38;40.65;97651.47;4995907;28;102135;-80
2022/02/05 01:32:51;;;;;;;;;3.75;3.25;;;;;14.42;40.66;97659.94;4989184;27;102212;-79
2022/02/05 01:35:30;;;;;;;;;1.00;1.00;;;;;14.43;40.47;97653.44;4993434;27;101799;-79
2022/02/05 01:49:34;;;;;;;;;2.50;2.25;;;;;14.50;40.51;97640.50;4996771;27;101645;-79
2022/02/05 01:52:14;;;;;;;;;2.25;2.25;;;;;14.53;40.37;97659.03;4997457;27;108462;-79
2022/02/05 01:57:19;;;;;;;;;4.25;3.00;;;;;14.53;40.43;97661.75;5021918;27;101805;-79
2022/02/05 02:04:43;;;;;;;;;2.25;2.25;;;;;14.54;40.08;97675.13;4999455;28;101798;-80
2022/02/05 02:05:34;;;;;;;;;3.00;1.50;;;;;14.54;40.29;97675.13;4970458;28;101859;-79
2022/02/05 02:11:19;;;;;;;;;2.00;2.00;;;;;14.53;40.24;97673.47;4975775;27;102031;-80
2022/02/05 02:24:41;;;;;;;;;2.25;2.25;;;;;14.52;40.06;97676.44;4967903;28;103376;-79
2022/02/05 02:30:07;;;;;;;;;3.00;2.00;;;;;14.48;39.98;97669.84;4996259;27;103285;-79
2022/02/05 02:32:37;;;;;;;;;2.50;2.00;;;;;14.47;40.64;97670.91;4987833;28;101770;-79
2022/02/05 02:35:10;;;;;;;;;3.00;2.00;;;;;14.47;40.38;97673.63;4994504;27;103363;-79
2022/02/05 02:37:50;;;;;;;;;3.00;2.25;;;;;14.45;40.27;97670.34;4992690;27;102957;-79
2022/02/05 02:40:26;;;;;;;;;3.50;2.25;;;;;14.45;40.34;97673.06;4990947;27;102239;-80
2022/02/05 02:43:01;;;;;;;;;2.00;2.00;;;;;14.43;40.03;97665.16;4990733;27;102024;-79
2022/02/05 02:45:28;;;;;;;;;3.00;2.00;;;;;14.42;40.56;97674.38;4992413;27;103578;-79
2022/02/05 02:47:55;;;;;;;;;2.00;2.00;;;;;14.40;40.48;97654.78;4996165;27;102432;-79
2022/02/05 02:58:26;;;;;;;;;2.50;2.00;;;;;14.37;39.93;97663.41;4985298;27;102351;-80
2022/02/05 03:00:56;;;;;;;;;2.00;2.00;;;;;14.36;40.58;97661.78;4998527;27;101522;-79
2022/02/05 03:03:24;;;;;;;;;3.00;3.00;;;;;14.36;40.82;97674.56;4993437;28;101866;-79
2022/02/05 03:05:51;;;;;;;;;3.25;2.00;;;;;14.35;40.69;97672.88;4996687;28;103390;-79
2022/02/05 03:08:18;;;;;;;;;1.00;1.00;;;;;14.34;39.90;97663.06;5006439;27;101745;-79
2022/02/05 03:10:46;;;;;;;;;3.75;3.00;;;;;14.36;40.16;97671.84;4994777;27;101592;-79
2022/02/05 03:13:12;;;;;;;;;4.00;2.75;;;;;14.36;40.61;97674.56;5001842;27;102806;-80
2022/02/05 03:15:44;;;;;;;;;5.00;4.00;;;;;14.36;40.73;97680.00;4998988;27;103221;-80
2022/02/05 03:18:26;;;;;;;;;1.75;1.75;;;;;14.37;40.65;97677.00;4995348;27;101562;-79
2022/02/05 03:20:53;;;;;;;;;4.00;2.00;;;;;14.38;40.31;97675.13;4997062;27;102093;-79
2022/02/05 03:23:20;;;;;;;;;2.00;2.00;;;;;14.38;40.09;97675.13;4997267;28;101814;-79
2022/02/05 03:25:47;;;;;;;;;3.25;2.75;;;;;14.41;40.11;97680.88;4998665;27;103335;-79
2022/02/05 03:28:14;;;;;;;;;2.00;2.00;;;;;14.42;40.17;97689.88;4990962;28;101887;-79
2022/02/05 03:30:41;;;;;;;;;2.00;1.50;;;;;14.43;40.02;97699.69;4994802;27;102062;-79
2022/02/05 03:33:08;;;;;;;;;2.00;2.00;;;;;14.46;40.52;97699.19;4997149;27;101633;-79
2022/02/05 03:35:36;;;;;;;;;2.25;2.00;;;;;14.45;40.39;97698.38;4992413;27;103355;-79
2022/02/05 03:38:03;;;;;;;;;4.00;3.00;;;;;14.47;40.01;97706.28;4986540;27;102126;-79
2022/02/05 03:40:30;;;;;;;;;2.75;1.75;;;;;14.49;40.19;97701.41;4988790;28;102022;-79
2022/02/05 03:42:57;;;;;;;;;2.25;2.00;;;;;14.50;40.23;97709.31;5002610;27;102188;-79
2022/02/05 03:45:24;;;;;;;;;2.00;2.00;;;;;14.50;40.07;97700.34;5020039;27;103412;-79
2022/02/05 03:47:52;;;;;;;;;1.25;1.25;;;;;14.51;40.74;97701.97;5004083;27;102514;-79
2022/02/05 03:50:19;;;;;;;;;2.75;2.00;;;;;14.53;40.01;97705.28;5001077;28;101909;-79
2022/02/05 03:52:46;;;;;;;;;2.00;2.00;;;;;14.52;40.09;97701.75;4996319;28;101884;-80
2022/02/05 03:55:13;;;;;;;;;1.00;1.00;;;;;14.52;40.10;97700.91;5007740;27;103546;-79
2022/02/05 03:57:40;;;;;;;;;3.25;2.00;;;;;14.54;40.09;97712.38;5000203;27;101606;-80
2022/02/05 04:00:08;;;;;;;;;1.25;1.25;;;;;14.54;40.32;97715.09;4992812;27;107134;-79
2022/02/05 04:02:35;;;;;;;;;2.00;1.00;;;;;14.54;39.87;97717.81;5002929;27;101969;-79
2022/02/05 04:05:03;;;;;;;;;3.00;2.00;;;;;14.51;40.51;97718.31;4997665;27;103613;-79
2022/02/05 04:07:33;;;;;;;;;2.00;2.00;;;;;14.50;40.44;97717.47;4994115;28;101950;-79
2022/02/05 04:10:03;;;;;;;;;2.00;1.50;;;;;14.51;40.05;97713.69;4991102;27;102082;-79
2022/02/05 04:18:01;;;;;;;;;2.75;1.50;;;;;14.44;40.12;97725.81;4984950;28;102651;-79
2022/02/05 04:20:28;;;;;;;;;2.00;2.00;;;;;14.51;40.17;97750.94;5000381;27;102067;-79
2022/02/05 04:22:55;;;;;;;;;2.25;2.00;;;;;14.48;40.46;97746.00;4988686;28;102022;-79
2022/02/05 04:25:22;;;;;;;;;1.00;1.00;;;;;14.48;40.26;97759.59;5021980;27;103351;-79
2022/02/05 04:27:49;;;;;;;;;1.75;1.75;;;;;14.48;40.67;97778.66;5007604;28;102075;-79
2022/02/05 04:30:16;;;;;;;;;2.00;2.00;;;;;14.46;40.08;97791.66;4996831;27;102612;-79
2022/02/05 04:32:43;;;;;;;;;1.75;1.25;;;;;14.45;40.09;97822.66;5008957;27;102171;-80
2022/02/05 04:35:10;;;;;;;;;1.00;1.00;;;;;14.44;40.12;97813.69;4999546;27;103757;-79
2022/02/05 04:37:38;;;;;;;;;2.00;2.00;;;;;14.43;40.27;97827.53;4994994;27;101793;-79
2022/02/05 04:40:26;;;;;;;;;1.75;1.00;;;;;14.42;40.34;97823.13;4994358;27;101533;-80
2022/02/05 04:45:55;;;;;;;;;1.00;1.00;;;;;14.42;40.40;97831.31;4996309;28;108052;-79
2022/02/05 04:51:31;;;;;;;;;1.75;1.00;;;;;14.38;40.46;97871.75;5000593;27;101813;-79
2022/02/05 04:54:14;;;;;;;;;2.00;2.00;;;;;14.37;40.67;97878.25;4985268;27;102062;-79
2022/02/05 04:56:58;;;;;;;;;2.00;1.75;;;;;14.38;40.27;97888.09;5000600;27;103421;-79
2022/02/05 04:59:54;;;;;;;;;2.50;1.75;;;;;14.38;40.26;97900.84;4995375;27;102093;-79
2022/02/05 05:03:28;;;;;;;;;0.00;0.00;;;;;14.36;40.12;97911.16;4988892;28;101761;-79
2022/02/05 05:05:37;;;;;;;;;1.00;1.00;;;;;14.34;40.36;97907.81;4974286;27;101880;-79
2022/02/05 05:21:46;;;;;;;;;2.00;2.00;;;;;14.39;40.79;97943.31;4996324;28;101694;-79
2022/02/05 05:24:13;;;;;;;;;1.00;1.00;;;;;14.38;40.26;97941.66;4992129;27;101756;-79
2022/02/05 05:26:40;;;;;;;;;1.00;1.00;;;;;14.41;40.21;97949.34;4998139;27;101980;-79
2022/02/05 05:29:07;;;;;;;;;0.00;0.00;;;;;14.41;40.22;97943.91;5000162;27;104417;-79
2022/02/05 05:31:34;;;;;;;;;0.75;0.75;;;;;14.43;40.41;97956.19;4987567;28;103472;-79
2022/02/05 05:34:01;;;;;;;;;2.50;2.00;;;;;14.44;40.18;97957.03;4983787;27;102741;-79
2022/02/05 05:36:29;;;;;;;;;1.00;1.00;;;;;14.45;40.40;97961.41;4983866;28;102148;-79
2022/02/05 05:39:02;;;;;;;;;1.00;1.00;;;;;14.48;40.69;97971.78;4979919;27;103272;-79
2022/02/05 05:41:30;;;;;;;;;1.50;1.00;;;;;14.49;40.65;97976.16;4997214;27;101735;-79
2022/02/05 05:44:18;;;;;;;;;3.00;2.25;;;;;14.51;40.27;97991.16;4989128;28;102269;-79
2022/02/05 05:46:49;;;;;;;;;1.25;1.00;;;;;14.52;40.61;97997.44;4988034;27;101789;-80
2022/02/05 05:49:19;;;;;;;;;1.75;1.75;;;;;14.53;40.34;97996.38;4990596;28;103385;-79
2022/02/05 05:51:48;;;;;;;;;1.00;1.00;;;;;14.53;40.41;98012.69;4992964;27;101858;-79
2022/02/05 05:54:15;;;;;;;;;2.25;1.25;;;;;14.54;40.37;98006.19;4999014;27;101953;-79
2022/02/05 05:56:44;;;;;;;;;0.75;0.75;;;;;14.53;40.74;98018.13;5000157;27;101925;-79
2022/02/05 05:59:12;;;;;;;;;1.00;1.00;;;;;14.53;40.89;98020.84;4995882;28;103375;-79
2022/02/05 06:01:39;;;;;;;;;1.50;1.50;;;;;14.53;40.98;98021.69;4976123;28;101764;-80
2022/02/05 06:04:06;;;;;;;;;1.00;1.00;;;;;14.50;40.24;98011.25;4993279;27;101716;-79
2022/02/05 06:06:33;;;;;;;;;1.00;1.00;;;;;14.52;40.30;98017.31;5003971;27;102146;-79
2022/02/05 06:09:01;;;;;;;;;2.50;1.00;;;;;14.48;40.53;98015.31;4993671;28;102930;-79
2022/02/05 06:11:29;;;;;;;;;1.00;1.00;;;;;14.48;40.29;98021.56;4996552;27;102104;-79
2022/02/05 06:13:56;;;;;;;;;1.00;1.00;;;;;14.48;40.77;98037.06;4994461;28;101692;-79
2022/02/05 06:16:29;;;;;;;;;1.00;1.00;;;;;14.48;40.64;98042.50;5001176;27;102275;-79
2022/02/05 06:18:57;;;;;;;;;1.00;1.00;;;;;14.47;40.58;98049.84;4986403;27;108297;-79
2022/02/05 06:21:24;;;;;;;;;1.25;1.00;;;;;14.46;40.67;98052.78;5001903;28;101590;-79
2022/02/05 06:23:51;;;;;;;;;1.50;1.00;;;;;14.46;40.88;98063.66;4997562;27;102489;-79
2022/02/05 06:26:18;;;;;;;;;1.00;1.00;;;;;14.44;40.17;98066.66;4985385;28;101879;-79
2022/02/05 06:28:45;;;;;;;;;1.00;1.00;;;;;14.45;40.88;98078.38;5015299;27;103373;-79
2022/02/05 06:31:12;;;;;;;;;0.50;0.50;;;;;14.43;40.60;98066.88;4991864;28;101652;-79
2022/02/05 06:33:39;;;;;;;;;1.00;1.00;;;;;14.43;40.26;98080.47;4994177;27;104294;-79
2022/02/05 06:36:06;;;;;;;;;1.75;1.00;;;;;14.41;40.88;98082.63;5000464;27;101706;-79
2022/02/05 06:38:33;;;;;;;;;1.00;1.00;;;;;14.40;40.48;98086.41;4991800;27;103353;-79
2022/02/05 06:41:00;;;;;;;;;2.00;1.00;;;;;14.39;40.73;98092.91;4997757;27;101989;-79
2022/02/05 06:43:27;;;;;;;;;1.00;1.00;;;;;14.38;40.64;98104.84;4995872;27;101977;-79
2022/02/05 06:45:54;;;;;;;;;0.50;0.50;;;;;14.36;40.50;98101.56;5007260;27;101903;-79
2022/02/05 06:48:21;;;;;;;;;1.00;1.00;;;;;14.35;40.86;98111.56;5001536;28;107817;-79
2022/02/05 06:50:48;;;;;;;;;0.25;0.25;;;;;14.34;40.71;98119.94;4990919;27;101905;-79
2022/02/05 06:53:15;;;;;;;;;1.00;1.00;;;;;14.33;40.60;98130.00;4995262;27;102028;-79
2022/02/05 06:55:43;;;;;;;;;0.00;0.00;;;;;14.32;40.15;98131.88;4994832;27;101840;-79
2022/02/05 06:58:10;;;;;;;;;1.00;0.00;;;;;14.31;40.56;98132.16;4997812;28;103539;-79
2022/02/05 07:00:38;;;;;;;;;1.00;0.25;;;;;14.28;40.99;98138.88;4993664;28;101795;-79
2022/02/05 07:03:05;;;;;;;;;1.25;1.00;;;;;14.31;40.28;98148.47;4993849;28;102821;-79
2022/02/05 07:05:33;;;;;;;;;1.00;0.00;;;;;14.32;40.68;98150.09;4991877;27;105179;-79
2022/02/05 07:08:00;;;;;;;;;1.50;0.00;;;;;14.34;40.91;98147.16;4992185;27;103251;-79
2022/02/05 07:10:27;;;;;;;;;0.75;0.75;;;;;14.35;40.38;98154.25;4999778;28;101804;-79
2022/02/05 07:15:31;;;;;;;;;0.00;0.00;;;;;14.36;40.71;98164.94;5002769;27;101737;-79
2022/02/05 07:18:18;;;;;;;;;1.25;1.00;;;;;14.38;40.59;98175.56;4992157;28;103330;-79
2022/02/05 07:20:52;;;;;;;;;1.00;0.75;;;;;14.40;40.67;98170.72;4988479;27;101842;-79
2022/02/05 07:31:21;;;;;;;;;1.00;0.00;;;;;14.46;40.35;98167.03;4982802;28;102671;-79
2022/02/05 07:33:48;;;;;;;;;0.75;0.00;;;;;14.47;40.14;98185.03;4990152;28;101797;-79
2022/02/05 07:36:16;;;;;;;;;0.00;0.00;;;;;14.48;40.88;98192.13;4992065;28;101799;-79
2022/02/05 07:38:44;;;;;;;;;0.50;0.00;;;;;14.48;40.28;98194.84;4995358;27;103531;-79
2022/02/05 07:41:11;;;;;;;;;0.50;0.50;;;;;14.49;40.67;98193.78;4993309;27;102285;-79
2022/02/05 07:43:38;;;;;;;;;0.00;0.00;;;;;14.52;40.61;98212.34;4997322;28;101756;-79
2022/02/05 07:46:06;;;;;;;;;1.50;0.00;;;;;14.52;40.09;98210.47;4997710;28;101812;-79
2022/02/05 07:48:33;;;;;;;;;1.00;0.00;;;;;14.53;40.68;98216.75;4988857;27;103455;-80
2022/02/05 07:51:00;;;;;;;;;3.75;0.75;;;;;14.53;40.20;98216.75;5000608;27;101729;-79
2022/02/05 07:53:28;;;;;;;;;1.25;0.50;;;;;14.54;40.70;98218.41;4991030;28;102018;-79
2022/02/05 07:55:55;;;;;;;;;1.00;0.25;;;;;14.54;40.05;98226.56;5004075;27;101984;-79
2022/02/05 07:58:25;;;;;;;;;0.00;0.00;;;;;14.53;40.50;98223.00;5009760;28;108149;-79
2022/02/05 08:00:52;;;;;;;;;0.50;0.25;;;;;14.53;40.35;98227.63;4994704;28;101935;-79
2022/02/05 08:03:19;;;;;;;;;1.00;1.00;;;;;14.53;40.49;98227.63;4997205;28;102000;-79
2022/02/05 08:05:47;;;;;;;;;1.00;1.00;;;;;14.53;40.68;98227.63;5003359;27;109610;-79
2022/02/05 08:08:17;;;;;;;;;0.00;0.00;;;;;14.52;40.20;98237.69;5009981;27;104593;-79
2022/02/05 08:10:56;;;;;;;;;0.00;0.00;;;;;14.50;40.60;98237.06;5010129;27;102030;-79
2022/02/05 08:13:24;;;;;;;;;0.75;0.75;;;;;14.50;40.80;98245.22;5003894;27;101693;-79
2022/02/05 08:15:56;;;;;;;;;0.00;0.00;;;;;14.50;40.30;98244.44;4998243;27;102568;-79
2022/02/05 08:18:23;;;;;;;;;1.00;1.00;;;;;14.49;40.65;98251.75;5004376;28;108038;-79
2022/02/05 08:20:50;;;;;;;;;0.00;0.00;;;;;14.50;40.73;98247.16;5001182;27;101960;-79
2022/02/05 08:23:17;;;;;;;;;2.00;0.00;;;;;14.50;39.86;98256.09;4999165;27;101918;-79
2022/02/05 08:25:44;;;;;;;;;1.00;1.00;;;;;14.50;40.41;98261.56;4993597;28;101681;-79
2022/02/05 08:28:11;;;;;;;;;0.00;0.00;;;;;14.50;40.64;98249.88;4996869;27;104915;-79
2022/02/05 08:30:38;;;;;;;;;0.00;0.00;;;;;14.49;40.62;98264.53;4994869;27;102067;-79
2022/02/05 08:33:06;;;;;;;;;1.00;0.00;;;;;14.48;40.70;98274.56;4998523;27;101752;-79
2022/02/05 08:35:33;;;;;;;;;2.00;1.00;;;;;14.47;40.87;98274.81;4991069;27;101911;-79
2022/02/05 08:38:01;;;;;;;;;1.00;1.00;;;;;14.45;40.24;98280.50;5010001;27;103403;-79
2022/02/05 08:40:28;;;;;;;;;1.00;1.00;;;;;14.44;40.84;98278.84;4991511;28;101770;-79
2022/02/05 08:42:55;;;;;;;;;0.50;0.50;;;;;14.44;40.88;98280.72;4990854;28;101752;-79
2022/02/05 08:45:22;;;;;;;;;0.75;0.00;;;;;14.43;40.78;98296.22;4992398;27;102102;-79
2022/02/05 08:47:49;;;;;;;;;0.00;0.00;;;;;14.41;40.38;98297.53;4989857;27;103385;-79
2022/02/05 08:50:16;;;;;;;;;0.00;0.00;;;;;14.40;40.92;98295.84;4988324;27;101840;-79
2022/02/05 08:52:43;;;;;;;;;1.00;1.00;;;;;14.38;40.39;98293.34;5005550;27;102077;-79
2022/02/05 08:55:10;;;;;;;;;0.00;0.00;;;;;14.39;40.17;98289.59;4983325;28;102254;-79
2022/02/05 08:57:39;;;;;;;;;0.00;0.00;;;;;14.41;40.68;98294.78;4994600;27;103422;-80
2022/02/05 09:00:12;;;;;;;;;1.00;0.00;;;;;14.42;40.19;98297.25;5000050;27;101805;-79
2022/02/05 09:02:54;;;;;;;;;1.00;1.00;;;;;14.43;40.08;98303.53;4995868;27;101948;-79
2022/02/05 09:08:06;;;;;;;;;0.00;0.00;;;;;14.44;40.12;98283.44;5005350;27;108097;-79
2022/02/05 09:10:49;;;;;;;;;1.00;1.00;;;;;14.48;40.18;98292.78;4994190;27;101886;-79
2022/02/05 09:13:38;;;;;;;;;0.00;0.00;;;;;14.49;39.94;98297.19;4997566;27;102203;-79
2022/02/05 09:16:03;;;;;;;;;0.00;0.00;;;;;14.50;40.40;98287.97;5004143;27;101786;-79
2022/02/05 09:18:30;;;;;;;;;0.00;0.00;;;;;14.54;40.44;98297.31;5009894;27;103380;-79
2022/02/05 09:20:57;;;;;;;;;0.00;0.00;;;;;14.54;40.07;98298.13;5005848;27;104036;-79
2022/02/05 09:23:24;;;;;;;;;0.00;0.00;;;;;14.55;40.56;98301.66;4988727;28;101812;-79
2022/02/05 09:25:52;;;;;;;;;0.75;0.00;;;;;14.57;40.34;98303.09;4997754;27;102789;-79
2022/02/05 09:28:21;;;;;;;;;2.00;0.00;;;;;14.59;39.91;98300.97;5002525;27;103501;-79
2022/02/05 09:31:01;;;;;;;;;0.00;0.00;;;;;14.61;40.34;98293.41;5022966;27;102004;-79
2022/02/05 09:33:29;;;;;;;;;0.00;0.00;;;;;14.62;40.13;98307.84;5004510;27;102671;-79
2022/02/05 09:35:56;;;;;;;;;0.00;0.00;;;;;14.64;40.03;98305.69;4994147;27;101843;-80
2022/02/05 09:38:23;;;;;;;;;0.00;0.00;;;;;14.66;40.62;98303.59;5000472;27;107977;-79
2022/02/05 09:40:50;;;;;;;;;0.00;0.00;;;;;14.66;40.24;98288.09;4992475;27;101717;-79
2022/02/05 09:43:26;;;;;;;;;0.00;0.00;;;;;14.68;40.05;98301.44;5002882;28;102203;-79
2022/02/05 09:45:56;;;;;;;;;1.00;0.00;;;;;14.68;40.00;98306.88;4995849;28;101857;-80
2022/02/05 09:48:27;;;;;;;;;0.00;0.00;;;;;14.69;40.30;98303.13;4990313;27;107983;-79
2022/02/05 09:50:54;;;;;;;;;0.00;0.00;;;;;14.69;40.46;98303.13;4994511;27;101585;-79
2022/02/05 09:53:22;;;;;;;;;0.00;0.00;;;;;14.69;40.38;98303.13;4993648;27;101925;-79
2022/02/05 09:55:50;;;;;;;;;0.75;0.75;;;;;14.69;40.10;98300.38;5004929;27;101708;-79
2022/02/05 09:58:18;;;;;;;;;0.00;0.00;;;;;14.69;40.48;98303.94;4999269;27;103365;-79
2022/02/05 10:01:02;;;;;;;;;0.00;0.00;;;;;14.69;40.21;98295.78;4992344;27;101892;-79
2022/02/05 10:03:32;;;;;;;;;0.25;0.00;;;;;14.67;40.20;98291.66;4989157;28;101962;-79
2022/02/05 10:06:09;;;;;;;;;0.00;0.00;;;;;14.68;40.54;98302.28;4998369;27;101775;-79
2022/02/05 10:08:37;;;;;;;;;0.00;0.00;;;;;14.68;40.50;98301.44;4998280;27;103440;-79
2022/02/05 10:11:04;;;;;;;;;1.00;0.75;;;;;14.66;40.45;98293.53;5001280;28;102047;-79
2022/02/05 10:13:32;;;;;;;;;0.00;0.00;;;;;14.66;40.29;98293.53;4997450;28;101859;-79
2022/02/05 10:15:59;;;;;;;;;0.25;0.00;;;;;14.67;39.90;98297.09;4999521;27;102103;-79
2022/02/05 10:18:30;;;;;;;;;0.00;0.00;;;;;14.68;40.42;98304.16;5000852;28;103381;-79
2022/02/05 10:21:01;;;;;;;;;0.75;0.00;;;;;14.67;40.04;98300.66;4990642;27;102133;-79
2022/02/05 10:23:29;;;;;;;;;0.00;0.00;;;;;14.67;40.10;98299.81;4994997;28;103753;-79
2022/02/05 10:25:56;;;;;;;;;0.00;0.00;;;;;14.66;40.08;98295.44;4982481;27;102063;-79
2022/02/05 10:28:23;;;;;;;;;0.00;0.00;;;;;14.65;40.10;98300.03;5004743;28;103443;-79
2022/02/05 10:30:53;;;;;;;;;0.00;0.00;;;;;14.64;40.26;98300.25;4998187;28;102053;-79
2022/02/05 10:33:25;;;;;;;;;1.00;0.25;;;;;14.63;39.88;98304.06;4993249;28;102028;-79
2022/02/05 10:43:58;;;;;;;;;0.00;0.00;;;;;14.58;40.61;98306.66;5002262;28;102087;-79
2022/02/05 10:46:35;;;;;;;;;1.00;1.00;;;;;14.55;39.97;98304.38;4994435;27;101890;-79
2022/02/05 10:49:03;;;;;;;;;0.00;0.00;;;;;14.54;40.72;98309.03;4996591;27;108101;-79
2022/02/05 10:51:41;;;;;;;;;1.00;0.00;;;;;14.54;41.08;98311.75;4993499;27;101759;-79
2022/02/05 10:54:18;;;;;;;;;0.00;0.00;;;;;14.54;40.71;98302.75;4986164;28;101820;-79
2022/02/05 10:57:15;;;;;;;;;0.00;0.00;;;;;14.54;40.71;98310.91;4998772;27;102065;-80
2022/02/05 11:08:14;;;;;;;;;1.00;0.00;;;;;14.57;39.81;98294.09;4988581;28;101911;-79
2022/02/05 11:13:29;;;;;;;;;0.25;0.00;;;;;14.57;39.84;98302.28;4982102;28;101922;-79
2022/02/05 11:16:40;;;;;;;;;0.00;0.00;;;;;14.58;39.90;98302.03;5000386;28;101796;-79
2022/02/05 11:19:02;;;;;;;;;1.00;0.00;;;;;14.61;40.29;98319.78;4988170;28;101806;-79
2022/02/05 11:21:47;;;;;;;;;0.00;0.00;;;;;14.62;39.85;98325.00;4997113;28;103427;-79
2022/02/05 11:24:14;;;;;;;;;0.00;0.00;;;;;14.61;40.16;98328.78;5001056;27;102461;-79
2022/02/05 11:26:41;;;;;;;;;0.50;0.00;;;;;14.64;39.79;98327.47;4997553;28;102213;-79
2022/02/05 11:29:11;;;;;;;;;0.00;0.00;;;;;14.64;40.43;98331.03;4994076;27;101721;-79
2022/02/05 11:31:39;;;;;;;;;0.25;0.25;;;;;14.64;40.35;98338.34;4979290;28;103317;-80
2022/02/05 11:34:34;;;;;;;;;0.00;0.00;;;;;14.65;40.00;98346.28;4989270;27;101699;-79
2022/02/05 11:37:05;;;;;;;;;0.00;0.00;;;;;14.66;39.88;98333.53;4995066;27;102732;-79
2022/02/05 11:39:43;;;;;;;;;1.00;0.00;;;;;14.66;40.08;98341.69;4996277;27;101762;-79
2022/02/05 11:42:29;;;;;;;;;0.00;0.00;;;;;14.66;40.01;98341.69;4990773;28;103421;-79
2022/02/05 11:45:02;;;;;;;;;0.00;0.00;;;;;14.66;40.33;98341.69;4992398;27;101978;-79
2022/02/05 11:47:30;;;;;;;;;1.00;0.00;;;;;14.67;40.42;98338.75;4992942;28;101862;-79
2022/02/05 11:49:57;;;;;;;;;0.00;0.00;;;;;14.66;40.20;98337.06;4997462;28;101843;-79
2022/02/05 11:52:37;;;;;;;;;0.00;0.00;;;;;14.66;39.90;98330.81;4992018;27;103404;-79
2022/02/05 11:55:10;;;;;;;;;0.00;0.00;;;;;14.66;40.03;98336.25;4991400;27;101665;-79
2022/02/05 11:57:44;;;;;;;;;0.00;0.00;;;;;14.65;40.00;98334.56;4988357;27;101773;-79
2022/02/05 12:00:30;;;;;;;;;0.00;0.00;;;;;14.65;40.23;98329.13;4990057;28;102357;-79
2022/02/05 12:03:00;;;;;;;;;0.25;0.00;;;;;14.64;40.32;98332.91;4997543;27;107988;-79
2022/02/05 12:05:32;;;;;;;;;0.75;0.00;;;;;14.63;40.22;98331.28;5001820;27;101969;-80
2022/02/05 12:08:03;;;;;;;;;1.00;0.25;;;;;14.62;40.33;98325.00;4991966;28;102106;-79
2022/02/05 12:10:52;;;;;;;;;1.00;0.00;;;;;14.61;39.93;98350.56;4995083;28;101732;-80
2022/02/05 12:13:35;;;;;;;;;0.00;0.00;;;;;14.60;40.53;98342.59;5001134;27;108014;-79
2022/02/05 12:16:08;;;;;;;;;0.00;0.00;;;;;14.58;40.16;98340.13;5006579;27;101912;-79
2022/02/05 12:18:56;;;;;;;;;1.00;0.00;;;;;14.58;40.42;98342.88;4996003;28;101793;-79
2022/02/05 12:21:30;;;;;;;;;0.50;0.00;;;;;14.59;40.20;98338.25;5002277;27;101808;-80
2022/02/05 12:26:33;;;;;;;;;0.00;0.00;;;;;14.57;40.68;98334.91;5002379;27;102112;-79
2022/02/05 12:29:01;;;;;;;;;2.00;0.00;;;;;14.55;39.82;98346.03;4992277;27;102116;-79
2022/02/05 12:31:34;;;;;;;;;0.50;0.00;;;;;14.54;40.38;98340.84;5006726;27;101704;-79
2022/02/05 12:34:08;;;;;;;;;0.00;0.00;;;;;14.53;40.63;98342.72;4995701;27;108158;-79
2022/02/05 12:36:43;;;;;;;;;1.00;0.00;;;;;14.53;40.78;98348.16;4995734;27;102205;-79
2022/02/05 12:39:23;;;;;;;;;0.25;0.25;;;;;14.52;40.31;98345.66;4988762;27;102023;-79
2022/02/05 12:42:06;;;;;;;;;0.00;0.00;;;;;14.50;40.63;98348.63;5002089;28;102009;-79
2022/02/05 12:44:35;;;;;;;;;0.00;0.00;;;;;14.49;40.37;98343.41;4977947;27;108169;-79
2022/02/05 12:47:07;;;;;;;;;1.00;0.00;;;;;14.48;40.12;98341.75;4993281;27;102002;-79
2022/02/05 12:50:17;;;;;;;;;1.00;0.00;;;;;14.48;40.26;98341.75;5012650;27;101988;-79
2022/02/05 12:52:27;;;;;;;;;0.00;0.00;;;;;14.46;40.56;98346.59;4984201;28;102013;-79
2022/02/05 12:54:58;;;;;;;;;0.00;0.00;;;;;14.47;40.56;98343.66;5011491;27;103352;-79
2022/02/05 12:57:29;;;;;;;;;0.00;0.00;;;;;14.48;40.43;98345.31;4994034;27;102056;-79
2022/02/05 13:00:03;;;;;;;;;1.00;1.00;;;;;14.47;40.43;98353.69;4993945;27;101677;-79
2022/02/05 13:02:30;;;;;;;;;1.00;0.00;;;;;14.47;40.05;98348.25;4992165;28;101733;-79
2022/02/05 13:04:57;;;;;;;;;0.00;0.00;;;;;14.47;40.15;98337.38;5009809;27;108234;-79
2022/02/05 13:07:25;;;;;;;;;0.00;0.00;;;;;14.47;39.92;98327.31;5012332;27;101747;-79
2022/02/05 13:09:55;;;;;;;;;0.00;0.00;;;;;14.47;40.04;98319.16;4998192;27;102067;-79
2022/02/05 13:12:26;;;;;;;;;1.00;1.00;;;;;14.48;39.95;98317.28;4990137;28;102398;-79
2022/02/05 13:15:00;;;;;;;;;0.50;0.00;;;;;14.48;40.10;98317.28;4992811;28;103403;-78
2022/02/05 13:17:59;;;;;;;;;0.00;0.00;;;;;14.48;40.45;98306.41;4989288;28;101761;-79
2022/02/05 13:29:13;;;;;;;;;1.00;0.00;;;;;14.54;40.24;98316.34;4991362;28;101763;-79
2022/02/05 13:34:29;;;;;;;;;0.25;0.00;;;;;14.58;40.21;98312.09;4993275;27;102427;-79
2022/02/05 13:42:05;;;;;;;;;0.00;0.00;;;;;14.58;40.14;98333.88;4993799;28;101871;-79
2022/02/05 13:45:02;;;;;;;;;0.00;0.00;;;;;14.60;39.70;98356.22;4986781;27;101737;-79
2022/02/05 13:47:34;;;;;;;;;0.00;0.00;;;;;14.60;40.42;98392.41;4993656;27;108307;-79
2022/02/05 13:50:08;;;;;;;;;1.00;0.00;;;;;14.59;40.45;98423.41;4988102;28;101467;-79
2022/02/05 13:52:45;;;;;;;;;0.00;0.00;;;;;14.58;40.29;98435.38;4997262;27;101698;-79
2022/02/05 13:55:24;;;;;;;;;0.00;0.00;;;;;14.59;40.32;98434.28;4986120;27;101809;-79
2022/02/05 13:58:07;;;;;;;;;1.00;0.00;;;;;14.60;40.08;98426.97;4991158;28;103414;-80
2022/02/05 14:00:37;;;;;;;;;0.25;0.00;;;;;14.59;40.35;98417.16;4997369;27;102811;-79
2022/02/05 14:03:05;;;;;;;;;0.00;0.00;;;;;14.59;40.19;98417.16;4984672;27;102426;-79
2022/02/05 14:05:32;;;;;;;;;1.00;0.00;;;;;14.58;40.30;98418.22;4996054;27;102275;-79
2022/02/05 14:07:59;;;;;;;;;0.00;0.00;;;;;14.58;40.33;98415.50;4995411;28;110554;-79
2022/02/05 14:10:26;;;;;;;;;0.00;0.00;;;;;14.56;39.75;98404.84;4971852;28;102204;-79
2022/02/05 14:12:57;;;;;;;;;0.00;0.00;;;;;14.56;39.84;98407.56;4995107;28;102100;-79
2022/02/05 14:15:25;;;;;;;;;0.00;0.00;;;;;14.56;40.39;98418.44;5001690;27;103330;-79
2022/02/05 14:18:13;;;;;;;;;1.00;0.00;;;;;14.56;40.01;98423.88;4994892;28;102534;-79
2022/02/05 14:20:53;;;;;;;;;0.00;0.00;;;;;14.56;40.07;98428.50;4992926;27;101658;-79
2022/02/05 14:23:22;;;;;;;;;0.00;0.00;;;;;14.55;40.30;98443.16;5001541;28;102102;-79